createdAt,value
2023-02-24T00:00:38.617Z,8.00
2023-02-24T00:01:26.303Z,7.90
2023-02-24T00:02:08.473Z,7.70
2023-02-24T00:02:50.228Z,7.80
2023-02-24T00:03:32.133Z,7.70
2023-02-24T00:04:14.164Z,8.10
2023-02-24T00:04:58.479Z,7.80
2023-02-24T00:05:42.822Z,7.80
2023-02-24T00:06:26.365Z,7.90
2023-02-24T00:07:10.831Z,7.70
2023-02-24T00:07:52.868Z,7.70
2023-02-24T00:08:35.210Z,7.80
2023-02-24T00:09:20.637Z,7.70
2023-02-24T00:10:02.782Z,8.00
2023-02-24T00:10:44.887Z,7.70
2023-02-24T00:11:30.736Z,7.90
2023-02-24T00:12:15.225Z,7.70
2023-02-24T00:12:57.168Z,7.60
2023-02-24T00:13:40.717Z,8.00
2023-02-24T00:14:24.752Z,8.00
2023-02-24T00:15:07.234Z,8.00
2023-02-24T00:16:02.829Z,7.90
2023-02-24T00:16:45.730Z,7.70
2023-02-24T00:17:30.452Z,7.60
2023-02-24T00:18:12.295Z,7.90
2023-02-24T00:18:54.173Z,7.70
2023-02-24T00:19:37.344Z,7.60
2023-02-24T00:20:19.293Z,7.80
2023-02-24T00:21:54.307Z,7.60
2023-02-24T00:22:38.781Z,7.50
2023-02-24T00:23:23.533Z,7.50
2023-02-24T00:24:05.932Z,7.50
2023-02-24T00:24:47.942Z,7.40
2023-02-24T00:27:00.998Z,7.40
2023-02-24T00:29:55.366Z,7.50
2023-02-24T00:32:13.255Z,7.60
2023-02-24T00:33:00.868Z,7.70
2023-02-24T00:34:31.596Z,7.70
2023-02-24T00:36:04.679Z,7.60
2023-02-24T00:39:00.165Z,7.80
2023-02-24T00:39:46.786Z,7.60
2023-02-24T00:40:32.403Z,7.30
2023-02-24T00:43:28.635Z,7.50
2023-02-24T00:44:13.845Z,7.50
2023-02-24T00:44:55.717Z,7.30
2023-02-24T00:45:39.202Z,7.30
2023-02-24T00:46:22.727Z,7.30
2023-02-24T00:47:06.855Z,7.50
2023-02-24T00:47:50.966Z,7.10
2023-02-24T00:48:32.776Z,7.10
2023-02-24T00:49:19.650Z,7.10
2023-02-24T00:50:01.594Z,7.40
2023-02-24T00:50:45.706Z,7.10
2023-02-24T00:51:27.582Z,7.30
2023-02-24T00:52:20.556Z,7.40
2023-02-24T00:53:02.322Z,7.40
2023-02-24T00:53:45.159Z,7.30
2023-02-24T00:54:28.352Z,7.40
2023-02-24T00:55:14.543Z,7.40
2023-02-24T00:56:00.614Z,7.30
2023-02-24T00:56:43.809Z,7.30
2023-02-24T00:57:25.641Z,7.40
2023-02-24T00:58:07.663Z,7.10
2023-02-24T00:58:49.720Z,7.50
2023-02-24T00:59:31.885Z,7.00
2023-02-24T01:00:15.240Z,7.10
2023-02-24T01:00:58.062Z,7.20
2023-02-24T01:01:40.542Z,7.10
2023-02-24T01:02:22.332Z,7.30
2023-02-24T01:03:04.333Z,7.10
2023-02-24T01:03:50.825Z,7.10
2023-02-24T01:04:33.103Z,7.30
2023-02-24T01:05:15.200Z,7.20
2023-02-24T01:06:00.052Z,7.40
2023-02-24T01:07:31.751Z,7.30
2023-02-24T01:08:16.335Z,7.00
2023-02-24T01:08:59.835Z,6.80
2023-02-24T01:09:42.205Z,7.10
2023-02-24T01:10:26.987Z,7.20
2023-02-24T01:11:29.522Z,7.00
2023-02-24T01:12:22.036Z,7.10
2023-02-24T01:13:04.669Z,7.40
2023-02-24T01:13:46.637Z,7.00
2023-02-24T01:14:31.039Z,7.10
2023-02-24T01:15:14.985Z,7.10
2023-02-24T01:16:03.401Z,7.10
2023-02-24T01:16:50.263Z,7.20
2023-02-24T01:17:35.053Z,7.00
2023-02-24T01:18:16.886Z,8.30
2023-02-24T01:18:58.973Z,7.20
2023-02-24T01:19:40.813Z,7.10
2023-02-24T01:20:24.913Z,7.10
2023-02-24T01:21:06.716Z,7.00
2023-02-24T01:21:55.062Z,7.10
2023-02-24T01:22:39.718Z,7.10
2023-02-24T01:23:21.546Z,7.20
2023-02-24T01:24:04.041Z,7.20
2023-02-24T01:24:47.044Z,7.20
2023-02-24T01:25:31.360Z,7.00
2023-02-24T01:26:13.203Z,7.10
2023-02-24T01:26:55.132Z,7.10
2023-02-24T01:27:37.224Z,7.10
2023-02-24T01:28:19.429Z,7.30
2023-02-24T01:29:01.250Z,7.20
2023-02-24T01:29:46.054Z,7.50
2023-02-24T01:30:27.845Z,7.10
2023-02-24T01:31:09.831Z,7.30
2023-02-24T01:31:55.252Z,7.30
2023-02-24T01:32:37.433Z,7.20
2023-02-24T01:33:20.302Z,6.90
2023-02-24T01:34:05.966Z,7.20
2023-02-24T01:34:51.374Z,7.40
2023-02-24T01:35:34.939Z,7.10
2023-02-24T01:36:19.584Z,6.90
2023-02-24T01:37:01.602Z,7.20
2023-02-24T01:37:43.408Z,7.00
2023-02-24T01:38:25.457Z,6.90
2023-02-24T01:39:10.973Z,6.90
2023-02-24T01:39:52.690Z,6.90
2023-02-24T01:40:34.837Z,7.20
2023-02-24T01:41:22.094Z,7.10
2023-02-24T01:42:06.443Z,7.70
2023-02-24T01:42:49.424Z,6.90
2023-02-24T01:43:34.391Z,7.20
2023-02-24T01:44:22.330Z,7.00
2023-02-24T01:45:15.032Z,7.70
2023-02-24T01:45:56.890Z,7.00
2023-02-24T01:46:53.159Z,6.90
2023-02-24T01:47:35.038Z,6.90
2023-02-24T01:48:20.142Z,7.40
2023-02-24T01:49:11.717Z,7.30
2023-02-24T01:49:54.893Z,7.00
2023-02-24T01:50:38.178Z,7.20
2023-02-24T01:51:21.170Z,6.90
2023-02-24T01:52:30.489Z,7.10
2023-02-24T01:53:12.615Z,7.10
2023-02-24T01:53:55.215Z,7.20
2023-02-24T01:54:43.088Z,7.00
2023-02-24T01:55:36.970Z,6.90
2023-02-24T01:56:20.883Z,7.20
2023-02-24T01:57:08.149Z,6.90
2023-02-24T01:57:52.078Z,7.20
2023-02-24T01:58:34.321Z,7.00
2023-02-24T01:59:16.261Z,7.00
2023-02-24T02:00:11.152Z,7.10
2023-02-24T02:00:55.180Z,7.20
2023-02-24T02:01:42.582Z,7.20
2023-02-24T02:02:25.316Z,7.10
2023-02-24T02:03:18.460Z,6.90
2023-02-24T02:04:05.534Z,7.00
2023-02-24T02:04:54.986Z,7.30
2023-02-24T02:05:39.618Z,6.90
2023-02-24T02:06:21.434Z,7.10
2023-02-24T02:07:04.269Z,7.40
2023-02-24T02:07:46.604Z,7.30
2023-02-24T02:08:29.687Z,7.00
2023-02-24T02:09:14.196Z,7.00
2023-02-24T02:10:04.104Z,7.20
2023-02-24T02:10:47.138Z,7.10
2023-02-24T02:11:29.063Z,6.90
2023-02-24T02:12:11.788Z,7.20
2023-02-24T02:12:53.616Z,7.20
2023-02-24T02:13:40.402Z,7.00
2023-02-24T02:14:25.564Z,7.10
2023-02-24T02:16:16.750Z,7.30
2023-02-24T02:17:19.764Z,6.90
2023-02-24T02:18:04.651Z,7.00
2023-02-24T02:18:59.395Z,7.00
2023-02-24T02:20:22.339Z,7.10
2023-02-24T02:21:07.145Z,7.00
2023-02-24T02:22:07.086Z,7.00
2023-02-24T02:23:09.608Z,6.80
2023-02-24T02:24:17.079Z,6.70
2023-02-24T02:25:25.534Z,6.90
2023-02-24T02:26:19.287Z,6.80
2023-02-24T02:27:21.052Z,7.00
2023-02-24T02:28:31.750Z,6.80
2023-02-24T02:29:39.545Z,6.90
2023-02-24T02:30:29.668Z,6.80
2023-02-24T02:31:29.450Z,7.10
2023-02-24T02:32:55.477Z,6.80
2023-02-24T02:33:59.904Z,6.80
2023-02-24T02:35:23.803Z,6.70
2023-02-24T02:36:20.411Z,6.80
2023-02-24T02:37:11.898Z,6.90
2023-02-24T02:38:17.409Z,6.60
2023-02-24T02:39:04.558Z,6.60
2023-02-24T02:39:48.981Z,6.50
2023-02-24T02:41:07.168Z,6.30
2023-02-24T02:42:24.530Z,6.40
2023-02-24T02:43:40.340Z,6.50
2023-02-24T02:44:35.572Z,6.40
2023-02-24T02:45:40.663Z,6.50
2023-02-24T02:46:38.015Z,6.60
2023-02-24T02:47:55.005Z,6.60
2023-02-24T02:48:59.519Z,6.40
2023-02-24T02:49:51.928Z,6.60
2023-02-24T02:50:45.760Z,6.30
2023-02-24T02:51:35.419Z,6.60
2023-02-24T02:52:26.770Z,6.30
2023-02-24T02:53:14.441Z,6.50
2023-02-24T02:54:01.838Z,7.40
2023-02-24T02:54:56.394Z,6.60
2023-02-24T02:55:59.632Z,6.50
2023-02-24T02:56:47.246Z,6.40
2023-02-24T02:57:31.524Z,6.40
2023-02-24T02:58:23.612Z,6.50
2023-02-24T02:59:09.140Z,6.50
2023-02-24T03:00:15.345Z,6.50
2023-02-24T03:01:03.172Z,6.50
2023-02-24T03:01:47.247Z,6.60
2023-02-24T03:02:40.547Z,6.50
2023-02-24T03:03:22.798Z,7.10
2023-02-24T03:04:10.483Z,6.60
2023-02-24T03:04:55.908Z,6.60
2023-02-24T03:05:48.162Z,6.80
2023-02-24T03:06:51.424Z,6.70
2023-02-24T03:07:42.757Z,6.40
2023-02-24T03:08:29.828Z,6.40
2023-02-24T03:09:19.756Z,6.30
2023-02-24T03:10:10.846Z,6.40
2023-02-24T03:10:54.148Z,6.40
2023-02-24T03:11:35.971Z,6.40
2023-02-24T03:12:21.861Z,6.60
2023-02-24T03:13:08.832Z,6.40
2023-02-24T03:13:54.783Z,6.50
2023-02-24T03:14:40.996Z,6.50
2023-02-24T03:15:26.115Z,6.40
2023-02-24T03:16:10.633Z,6.30
2023-02-24T03:16:55.848Z,6.30
2023-02-24T03:17:41.210Z,6.40
2023-02-24T03:18:33.287Z,6.40
2023-02-24T03:19:20.672Z,6.40
2023-02-24T03:20:17.564Z,6.50
2023-02-24T03:21:11.997Z,6.10
2023-02-24T03:22:21.957Z,6.10
2023-02-24T03:23:11.040Z,6.20
2023-02-24T03:23:56.180Z,6.10
2023-02-24T03:24:44.346Z,6.10
2023-02-24T03:25:33.882Z,6.30
2023-02-24T03:26:30.633Z,6.40
2023-02-24T03:27:24.529Z,6.40
2023-02-24T03:28:40.012Z,6.40
2023-02-24T03:29:37.392Z,6.30
2023-02-24T03:30:27.504Z,6.40
2023-02-24T03:31:27.729Z,6.40
2023-02-24T03:32:17.538Z,6.40
2023-02-24T03:33:24.339Z,6.30
2023-02-24T03:34:35.931Z,6.10
2023-02-24T03:35:21.932Z,6.40
2023-02-24T03:36:06.515Z,6.40
2023-02-24T03:36:50.597Z,6.40
2023-02-24T03:37:35.888Z,6.40
2023-02-24T03:38:20.061Z,6.60
2023-02-24T03:39:02.577Z,6.40
2023-02-24T03:39:46.963Z,6.30
2023-02-24T03:40:34.126Z,6.20
2023-02-24T03:41:16.851Z,6.60
2023-02-24T03:42:12.935Z,6.70
2023-02-24T03:43:05.138Z,6.40
2023-02-24T03:43:49.999Z,6.50
2023-02-24T03:44:32.642Z,6.40
2023-02-24T03:45:16.332Z,6.40
2023-02-24T03:45:59.290Z,6.30
2023-02-24T03:46:42.660Z,6.60
2023-02-24T03:47:26.091Z,6.40
2023-02-24T03:48:09.975Z,6.40
2023-02-24T03:49:03.180Z,6.30
2023-02-24T03:49:45.879Z,6.10
2023-02-24T03:50:31.743Z,6.40
2023-02-24T03:51:20.034Z,6.10
2023-02-24T03:52:10.419Z,6.50
2023-02-24T03:53:10.756Z,6.30
2023-02-24T03:54:15.734Z,6.20
2023-02-24T03:55:09.313Z,6.50
2023-02-24T03:56:29.170Z,6.40
2023-02-24T03:57:31.422Z,6.60
2023-02-24T03:58:15.635Z,6.30
2023-02-24T03:59:25.981Z,6.10
2023-02-24T04:00:37.033Z,6.30
2023-02-24T04:01:36.270Z,6.20
2023-02-24T04:02:22.135Z,6.20
2023-02-24T04:03:34.367Z,6.30
2023-02-24T04:04:28.315Z,6.30
2023-02-24T04:05:23.222Z,6.40
2023-02-24T04:06:18.544Z,6.30
2023-02-24T04:07:11.898Z,6.30
2023-02-24T04:08:04.325Z,6.20
2023-02-24T04:08:56.577Z,6.30
2023-02-24T04:09:50.958Z,6.20
2023-02-24T04:10:53.109Z,6.40
2023-02-24T04:11:46.359Z,6.20
2023-02-24T04:12:34.912Z,6.50
2023-02-24T04:13:20.187Z,6.30
2023-02-24T04:14:13.170Z,6.20
2023-02-24T04:15:15.341Z,6.20
2023-02-24T04:16:06.251Z,6.30
2023-02-24T04:17:01.197Z,6.30
2023-02-24T04:17:50.890Z,6.10
2023-02-24T04:18:33.135Z,6.20
2023-02-24T04:19:19.117Z,6.20
2023-02-24T04:20:18.221Z,6.50
2023-02-24T04:21:02.995Z,6.30
2023-02-24T04:21:50.839Z,6.20
2023-02-24T04:22:33.111Z,6.10
2023-02-24T04:23:18.228Z,6.30
2023-02-24T04:24:08.530Z,6.90
2023-02-24T04:24:56.595Z,6.30
2023-02-24T04:25:40.281Z,6.30
2023-02-24T04:26:24.867Z,6.00
2023-02-24T04:27:11.465Z,6.10
2023-02-24T04:27:56.332Z,6.90
2023-02-24T04:28:38.468Z,6.10
2023-02-24T04:29:25.840Z,6.10
2023-02-24T04:30:11.931Z,6.20
2023-02-24T04:30:58.578Z,6.00
2023-02-24T04:31:41.110Z,6.90
2023-02-24T04:32:27.416Z,6.20
2023-02-24T04:33:10.320Z,6.00
2023-02-24T04:33:53.332Z,6.50
2023-02-24T04:34:35.990Z,6.30
2023-02-24T04:35:22.201Z,6.20
2023-02-24T04:36:05.345Z,6.10
2023-02-24T04:36:49.654Z,5.00
2023-02-24T04:37:36.008Z,6.20
2023-02-24T04:38:18.585Z,6.00
2023-02-24T04:39:00.697Z,6.20
2023-02-24T04:39:42.624Z,6.00
2023-02-24T04:40:24.560Z,5.90
2023-02-24T04:41:07.001Z,6.00
2023-02-24T04:41:51.681Z,5.90
2023-02-24T04:42:33.446Z,5.80
2023-02-24T04:43:15.673Z,5.80
2023-02-24T04:43:57.609Z,5.70
2023-02-24T04:44:39.416Z,6.00
2023-02-24T04:45:30.618Z,5.90
2023-02-24T04:46:13.484Z,5.90
2023-02-24T04:46:56.566Z,6.10
2023-02-24T04:47:38.390Z,5.90
2023-02-24T04:48:20.372Z,6.20
2023-02-24T04:49:02.188Z,5.80
2023-02-24T04:49:44.700Z,5.90
2023-02-24T04:50:32.262Z,5.90
2023-02-24T04:51:16.334Z,6.00
2023-02-24T04:51:58.160Z,6.10
2023-02-24T04:52:40.534Z,5.80
2023-02-24T04:53:27.245Z,5.90
2023-02-24T04:54:10.634Z,5.90
2023-02-24T04:54:52.416Z,5.90
2023-02-24T04:55:40.852Z,6.30
2023-02-24T04:56:22.771Z,6.10
2023-02-24T04:57:07.257Z,6.00
2023-02-24T04:57:52.682Z,6.10
2023-02-24T04:58:38.368Z,6.40
2023-02-24T04:59:22.224Z,6.10
2023-02-24T05:00:21.177Z,5.80
2023-02-24T05:01:12.071Z,5.80
2023-02-24T05:01:54.029Z,6.10
2023-02-24T05:02:36.262Z,6.10
2023-02-24T05:03:19.693Z,6.20
2023-02-24T05:04:01.615Z,6.10
2023-02-24T05:04:43.504Z,6.40
2023-02-24T05:05:26.260Z,6.10
2023-02-24T05:06:16.352Z,6.20
2023-02-24T05:06:58.162Z,6.20
2023-02-24T05:07:40.826Z,6.10
2023-02-24T05:08:23.672Z,6.10
2023-02-24T05:09:16.425Z,6.00
2023-02-24T05:10:00.703Z,5.90
2023-02-24T05:10:44.665Z,6.00
2023-02-24T05:11:27.413Z,5.70
2023-02-24T05:12:09.603Z,5.90
2023-02-24T05:12:51.377Z,5.80
2023-02-24T05:13:33.765Z,5.80
2023-02-24T05:14:16.807Z,5.70
2023-02-24T05:15:01.317Z,5.90
2023-02-24T05:15:44.725Z,5.70
2023-02-24T05:16:28.889Z,5.60
2023-02-24T05:17:13.857Z,5.70
2023-02-24T05:17:56.014Z,5.70
2023-02-24T05:18:37.986Z,5.60
2023-02-24T05:19:41.284Z,5.70
2023-02-24T05:20:41.465Z,5.70
2023-02-24T05:21:38.509Z,5.80
2023-02-24T05:22:22.928Z,5.70
2023-02-24T05:24:34.679Z,5.60
2023-02-24T05:25:16.732Z,5.70
2023-02-24T05:25:58.958Z,5.80
2023-02-24T05:26:43.914Z,5.40
2023-02-24T05:27:28.111Z,5.50
2023-02-24T05:28:10.029Z,5.80
2023-02-24T05:28:54.737Z,5.50
2023-02-24T05:29:37.822Z,5.70
2023-02-24T05:30:19.843Z,5.70
2023-02-24T05:31:12.775Z,5.50
2023-02-24T05:32:01.972Z,5.40
2023-02-24T05:32:43.808Z,5.50
2023-02-24T05:33:29.224Z,5.60
2023-02-24T05:34:17.087Z,5.30
2023-02-24T05:34:59.053Z,5.40
2023-02-24T05:35:41.416Z,5.60
2023-02-24T05:36:24.810Z,5.60
2023-02-24T05:37:10.724Z,5.40
2023-02-24T05:37:52.903Z,5.30
2023-02-24T05:38:38.151Z,6.20
2023-02-24T05:39:21.419Z,5.30
2023-02-24T05:40:03.647Z,5.30
2023-02-24T05:40:47.561Z,5.00
2023-02-24T05:41:38.753Z,5.40
2023-02-24T05:42:20.804Z,5.40
2023-02-24T05:43:04.824Z,5.80
2023-02-24T05:43:55.764Z,5.40
2023-02-24T05:44:37.584Z,5.50
2023-02-24T05:45:21.729Z,5.60
2023-02-24T05:46:06.504Z,5.40
2023-02-24T05:46:49.744Z,5.40
2023-02-24T05:47:32.070Z,6.20
2023-02-24T05:48:18.003Z,5.60
2023-02-24T05:49:02.686Z,5.50
2023-02-24T05:49:46.821Z,5.40
2023-02-24T05:50:28.811Z,5.30
2023-02-24T05:51:12.567Z,5.50
2023-02-24T05:52:00.766Z,5.40
2023-02-24T05:52:45.818Z,5.20
2023-02-24T05:53:27.897Z,5.30
2023-02-24T05:54:13.096Z,5.30
2023-02-24T05:54:55.224Z,5.40
2023-02-24T05:55:37.019Z,5.50
2023-02-24T05:56:21.556Z,5.30
2023-02-24T05:57:12.141Z,5.20
2023-02-24T05:57:56.739Z,5.30
2023-02-24T05:58:41.850Z,5.40
2023-02-24T05:59:26.635Z,5.60
2023-02-24T06:00:58.771Z,5.70
2023-02-24T06:01:41.884Z,5.40
2023-02-24T06:02:27.768Z,5.30
2023-02-24T06:03:10.138Z,5.60
2023-02-24T06:03:54.396Z,5.30
2023-02-24T06:04:45.751Z,5.60
2023-02-24T06:05:27.838Z,5.40
2023-02-24T06:06:09.637Z,5.50
2023-02-24T06:06:52.545Z,5.70
2023-02-24T06:07:36.641Z,5.60
2023-02-24T06:08:18.516Z,5.30
2023-02-24T06:09:01.950Z,4.40
2023-02-24T06:09:45.098Z,5.30
2023-02-24T06:10:27.565Z,5.20
2023-02-24T06:11:12.770Z,5.20
2023-02-24T06:11:56.931Z,5.30
2023-02-24T06:12:39.893Z,5.30
2023-02-24T06:13:21.944Z,5.00
2023-02-24T06:14:07.178Z,5.00
2023-02-24T06:14:49.139Z,5.20
2023-02-24T06:15:32.088Z,5.10
2023-02-24T06:16:15.882Z,5.90
2023-02-24T06:16:57.775Z,5.00
2023-02-24T06:17:40.125Z,5.40
2023-02-24T06:18:22.299Z,5.30
2023-02-24T06:19:05.329Z,5.40
2023-02-24T06:19:52.953Z,5.10
2023-02-24T06:20:35.092Z,5.10
2023-02-24T06:21:17.220Z,5.10
2023-02-24T06:22:06.403Z,5.20
2023-02-24T06:22:51.249Z,5.20
2023-02-24T06:23:34.741Z,5.10
2023-02-24T06:24:18.267Z,5.20
2023-02-24T06:25:02.673Z,5.30
2023-02-24T06:25:44.822Z,6.00
2023-02-24T06:26:29.841Z,5.30
2023-02-24T06:27:17.870Z,5.20
2023-02-24T06:28:01.811Z,5.30
2023-02-24T06:28:46.598Z,5.40
2023-02-24T06:29:32.912Z,5.50
2023-02-24T06:30:15.220Z,6.50
2023-02-24T06:30:57.075Z,5.10
2023-02-24T06:31:41.428Z,5.40
2023-02-24T06:32:26.218Z,6.60
2023-02-24T06:33:08.167Z,5.50
2023-02-24T06:33:50.746Z,5.50
2023-02-24T06:34:33.201Z,5.40
2023-02-24T06:35:15.807Z,5.70
2023-02-24T06:36:02.996Z,5.60
2023-02-24T06:36:44.747Z,5.60
2023-02-24T06:37:26.537Z,5.50
2023-02-24T06:38:08.511Z,5.50
2023-02-24T06:38:52.597Z,5.70
2023-02-24T06:39:37.413Z,5.80
2023-02-24T06:40:20.127Z,5.80
2023-02-24T06:41:04.176Z,5.90
2023-02-24T06:41:51.799Z,5.60
2023-02-24T06:42:33.598Z,6.20
2023-02-24T06:43:15.634Z,5.90
2023-02-24T06:44:01.380Z,6.60
2023-02-24T06:44:43.190Z,5.60
2023-02-24T06:45:26.383Z,5.60
2023-02-24T06:46:08.281Z,5.80
2023-02-24T06:46:50.321Z,5.60
2023-02-24T06:47:32.649Z,5.70
2023-02-24T06:48:14.443Z,5.80
2023-02-24T06:48:58.096Z,5.90
2023-02-24T06:49:40.092Z,5.50
2023-02-24T06:50:22.092Z,5.80
2023-02-24T06:51:13.711Z,5.90
2023-02-24T06:51:57.603Z,5.80
2023-02-24T06:52:43.258Z,6.00
2023-02-24T06:53:26.669Z,6.30
2023-02-24T06:54:08.469Z,6.10
2023-02-24T06:55:35.606Z,6.00
2023-02-24T06:56:19.874Z,6.00
2023-02-24T06:57:03.387Z,6.30
2023-02-24T06:57:45.299Z,6.20
2023-02-24T06:58:27.093Z,6.80
2023-02-24T06:59:21.543Z,6.00
2023-02-24T07:00:17.080Z,5.90
2023-02-24T07:01:47.170Z,6.00
2023-02-24T07:03:24.338Z,6.20
2023-02-24T07:04:11.240Z,9.00
2023-02-24T07:04:55.441Z,5.80
2023-02-24T07:05:37.619Z,6.00
2023-02-24T07:06:24.033Z,6.20
2023-02-24T07:07:07.962Z,6.00
2023-02-24T07:07:52.935Z,6.00
2023-02-24T07:08:34.716Z,6.10
2023-02-24T07:09:20.912Z,6.00
2023-02-24T07:10:02.711Z,6.10
2023-02-24T07:10:44.974Z,6.00
2023-02-24T07:11:29.122Z,6.10
2023-02-24T07:12:12.617Z,6.20
2023-02-24T07:12:54.884Z,6.00
2023-02-24T07:13:37.057Z,5.90
2023-02-24T07:14:21.924Z,6.20
2023-02-24T07:15:06.011Z,6.10
2023-02-24T07:15:51.906Z,6.00
2023-02-24T07:16:35.269Z,6.30
2023-02-24T07:17:23.351Z,6.20
2023-02-24T07:18:07.132Z,6.80
2023-02-24T07:18:51.336Z,6.20
2023-02-24T07:19:33.133Z,5.90
2023-02-24T07:20:25.236Z,6.30
2023-02-24T07:21:16.297Z,6.40
2023-02-24T07:22:00.638Z,6.30
2023-02-24T07:22:46.234Z,6.00
2023-02-24T07:23:29.346Z,6.70
2023-02-24T07:24:13.458Z,6.40
2023-02-24T07:25:00.496Z,6.10
2023-02-24T07:25:46.293Z,6.30
2023-02-24T07:26:30.339Z,6.20
2023-02-24T07:27:21.737Z,6.30
2023-02-24T07:28:03.584Z,5.90
2023-02-24T07:28:47.992Z,6.20
2023-02-24T07:29:32.507Z,6.30
2023-02-24T07:30:15.667Z,6.20
2023-02-24T07:30:57.559Z,6.30
2023-02-24T07:31:40.565Z,6.30
2023-02-24T07:32:23.281Z,6.30
2023-02-24T07:33:05.402Z,6.30
2023-02-24T07:33:48.196Z,6.30
2023-02-24T07:34:31.198Z,7.90
2023-02-24T07:35:14.527Z,6.40
2023-02-24T07:35:57.549Z,6.50
2023-02-24T07:36:51.401Z,6.30
2023-02-24T07:37:34.950Z,6.20
2023-02-24T07:38:22.869Z,6.50
2023-02-24T07:39:08.132Z,9.20
2023-02-24T07:39:49.979Z,6.20
2023-02-24T07:40:33.861Z,6.10
2023-02-24T07:41:18.992Z,6.30
2023-02-24T07:42:01.030Z,6.20
2023-02-24T07:42:47.696Z,5.90
2023-02-24T07:43:29.615Z,6.30
2023-02-24T07:44:11.763Z,6.20
2023-02-24T07:44:55.069Z,7.50
2023-02-24T07:45:36.912Z,6.20
2023-02-24T07:46:25.765Z,6.20
2023-02-24T07:47:08.361Z,6.10
2023-02-24T07:47:50.494Z,6.30
2023-02-24T07:48:32.331Z,6.20
2023-02-24T07:49:19.855Z,6.20
2023-02-24T07:50:03.053Z,6.40
2023-02-24T07:50:44.883Z,6.20
2023-02-24T07:51:29.428Z,6.10
2023-02-24T07:52:11.713Z,6.10
2023-02-24T07:52:53.767Z,6.10
2023-02-24T07:53:36.572Z,6.20
2023-02-24T07:54:21.102Z,6.40
2023-02-24T07:55:03.543Z,6.20
2023-02-24T07:55:46.466Z,6.00
2023-02-24T07:56:33.712Z,6.20
2023-02-24T07:57:15.621Z,6.10
2023-02-24T07:57:57.791Z,6.30
2023-02-24T07:58:47.277Z,6.00
2023-02-24T07:59:34.665Z,6.00
2023-02-24T08:00:20.197Z,6.20
2023-02-24T08:01:08.621Z,6.60
2023-02-24T08:01:50.669Z,6.60
2023-02-24T08:02:32.525Z,6.70
2023-02-24T08:03:14.316Z,6.50
2023-02-24T08:04:01.458Z,6.40
2023-02-24T08:04:50.127Z,6.70
2023-02-24T08:05:34.590Z,6.40
2023-02-24T08:06:16.448Z,6.50
2023-02-24T08:07:02.847Z,6.50
2023-02-24T08:07:49.942Z,6.50
2023-02-24T08:08:31.702Z,6.70
2023-02-24T08:09:20.304Z,6.50
2023-02-24T08:10:14.040Z,6.60
2023-02-24T08:11:03.996Z,6.70
2023-02-24T08:11:52.898Z,6.90
2023-02-24T08:12:35.492Z,6.60
2023-02-24T08:13:21.453Z,6.50
2023-02-24T08:14:06.591Z,6.60
2023-02-24T08:14:51.620Z,6.80
2023-02-24T08:15:36.118Z,6.50
2023-02-24T08:16:18.125Z,6.50
2023-02-24T08:17:00.429Z,6.60
2023-02-24T08:17:42.566Z,6.80
2023-02-24T08:18:24.400Z,6.50
2023-02-24T08:19:07.674Z,6.50
2023-02-24T08:19:56.695Z,6.70
2023-02-24T08:20:52.333Z,6.50
2023-02-24T08:21:43.553Z,6.80
2023-02-24T08:22:27.637Z,6.50
2023-02-24T08:23:10.887Z,6.80
2023-02-24T08:23:53.071Z,6.60
2023-02-24T08:24:35.963Z,7.00
2023-02-24T08:25:35.727Z,6.90
2023-02-24T08:26:22.641Z,6.90
2023-02-24T08:27:05.113Z,6.90
2023-02-24T08:28:07.501Z,7.00
2023-02-24T08:28:51.622Z,6.80
2023-02-24T08:29:56.092Z,6.80
2023-02-24T08:30:46.619Z,6.90
2023-02-24T08:31:28.739Z,6.80
2023-02-24T08:32:13.801Z,7.20
2023-02-24T08:32:57.059Z,6.90
2023-02-24T08:33:38.965Z,7.50
2023-02-24T08:34:20.877Z,7.00
2023-02-24T08:35:14.832Z,7.10
2023-02-24T08:36:02.179Z,7.10
2023-02-24T08:36:48.431Z,7.10
2023-02-24T08:37:41.999Z,6.90
2023-02-24T08:38:26.420Z,7.10
2023-02-24T08:39:08.382Z,7.00
2023-02-24T08:39:54.089Z,7.20
2023-02-24T08:40:50.531Z,7.20
2023-02-24T08:41:54.156Z,7.20
2023-02-24T08:42:36.286Z,7.00
2023-02-24T08:43:25.041Z,7.10
2023-02-24T08:44:10.251Z,7.00
2023-02-24T08:44:53.801Z,6.90
2023-02-24T08:45:38.489Z,6.90
2023-02-24T08:46:26.664Z,7.00
2023-02-24T08:47:09.759Z,7.00
2023-02-24T08:47:53.792Z,7.30
2023-02-24T08:48:42.422Z,7.00
2023-02-24T08:49:28.305Z,7.00
2023-02-24T08:50:11.107Z,7.00
2023-02-24T08:50:57.247Z,6.70
2023-02-24T08:51:43.973Z,7.40
2023-02-24T08:52:32.268Z,7.00
2023-02-24T08:53:19.224Z,7.00
2023-02-24T08:54:11.557Z,6.90
2023-02-24T08:54:59.116Z,6.60
2023-02-24T08:55:41.309Z,6.60
2023-02-24T08:56:29.179Z,6.90
2023-02-24T08:57:15.225Z,6.70
2023-02-24T08:58:01.691Z,7.00
2023-02-24T08:58:47.729Z,7.00
2023-02-24T08:59:37.672Z,7.00
2023-02-24T09:00:39.965Z,7.00
2023-02-24T09:01:35.095Z,7.00
2023-02-24T09:02:27.053Z,7.30
2023-02-24T09:03:08.918Z,6.90
2023-02-24T09:03:54.872Z,6.90
2023-02-24T09:04:36.670Z,7.10
2023-02-24T09:05:18.806Z,6.90
2023-02-24T09:06:10.872Z,6.80
2023-02-24T09:07:10.707Z,7.20
2023-02-24T09:07:54.843Z,7.10
2023-02-24T09:08:40.128Z,7.60
2023-02-24T09:09:22.612Z,7.50
2023-02-24T09:10:17.763Z,7.00
2023-02-24T09:11:07.918Z,7.20
2023-02-24T09:12:01.980Z,7.20
2023-02-24T09:12:44.617Z,7.40
2023-02-24T09:13:33.091Z,7.30
2023-02-24T09:14:27.264Z,7.20
2023-02-24T09:15:11.401Z,6.70
2023-02-24T09:15:53.210Z,7.10
2023-02-24T09:16:35.609Z,7.00
2023-02-24T09:17:22.726Z,7.10
2023-02-24T09:18:08.022Z,7.30
2023-02-24T09:19:11.341Z,7.30
2023-02-24T09:20:19.091Z,7.00
2023-02-24T09:21:39.900Z,7.20
2023-02-24T09:22:47.716Z,7.20
2023-02-24T09:23:46.018Z,7.00
2023-02-24T09:24:28.050Z,7.20
2023-02-24T09:25:24.351Z,6.90
2023-02-24T09:26:11.173Z,6.90
2023-02-24T09:27:00.989Z,7.20
2023-02-24T09:27:42.836Z,7.20
2023-02-24T09:28:26.727Z,7.20
2023-02-24T09:29:32.024Z,7.40
2023-02-24T09:30:36.150Z,7.30
2023-02-24T09:31:18.302Z,7.70
2023-02-24T09:32:05.448Z,7.20
2023-02-24T09:32:47.839Z,7.40
2023-02-24T09:33:38.995Z,8.10
2023-02-24T09:34:30.098Z,7.40
2023-02-24T09:35:14.930Z,7.60
2023-02-24T09:36:20.141Z,7.20
2023-02-24T09:37:03.663Z,7.50
2023-02-24T09:37:48.071Z,7.70
2023-02-24T09:38:56.601Z,7.80
2023-02-24T09:40:07.834Z,7.80
2023-02-24T09:40:49.912Z,7.60
2023-02-24T09:42:06.234Z,8.20
2023-02-24T09:42:48.150Z,7.70
2023-02-24T09:43:30.597Z,7.90
2023-02-24T09:44:19.579Z,7.60
2023-02-24T09:45:11.497Z,8.00
2023-02-24T09:46:14.889Z,7.70
2023-02-24T09:47:11.187Z,7.60
2023-02-24T09:47:58.303Z,7.90
2023-02-24T09:48:55.259Z,8.00
2023-02-24T09:49:50.237Z,7.80
2023-02-24T09:51:04.741Z,7.80
2023-02-24T09:51:57.856Z,7.40
2023-02-24T09:52:41.405Z,7.60
2023-02-24T09:53:29.403Z,7.40
2023-02-24T09:54:24.499Z,7.30
2023-02-24T09:55:25.144Z,7.60
2023-02-24T09:56:22.136Z,7.80
2023-02-24T09:57:17.286Z,7.50
2023-02-24T09:58:17.061Z,7.70
2023-02-24T09:59:12.336Z,7.70
2023-02-24T10:00:30.479Z,7.50
2023-02-24T10:01:33.656Z,7.50
2023-02-24T10:02:31.161Z,7.20
2023-02-24T10:03:19.723Z,7.50
2023-02-24T10:04:21.789Z,7.80
2023-02-24T10:05:19.531Z,7.40
2023-02-24T10:06:12.334Z,7.20
2023-02-24T10:07:07.303Z,7.10
2023-02-24T10:07:53.201Z,7.00
2023-02-24T10:08:40.356Z,7.50
2023-02-24T10:09:36.416Z,7.00
2023-02-24T10:10:28.078Z,7.10
2023-02-24T10:11:12.619Z,7.20
2023-02-24T10:12:06.148Z,7.30
2023-02-24T10:13:16.604Z,7.30
2023-02-24T10:14:05.468Z,7.40
2023-02-24T10:15:21.652Z,7.50
2023-02-24T10:16:09.488Z,7.30
2023-02-24T10:17:13.855Z,7.30
2023-02-24T10:18:16.417Z,7.40
2023-02-24T10:19:16.607Z,7.50
2023-02-24T10:20:13.804Z,7.40
2023-02-24T10:21:30.591Z,7.50
2023-02-24T10:22:23.091Z,7.80
2023-02-24T10:23:18.580Z,7.70
2023-02-24T10:24:29.420Z,8.30
2023-02-24T10:25:40.433Z,8.10
2023-02-24T10:26:32.520Z,7.80
2023-02-24T10:27:18.123Z,7.80
2023-02-24T10:28:35.665Z,8.00
2023-02-24T10:29:41.475Z,8.30
2023-02-24T10:30:30.670Z,7.90
2023-02-24T10:31:27.622Z,8.10
2023-02-24T10:32:23.529Z,7.70
2023-02-24T10:33:18.706Z,7.60
2023-02-24T10:34:08.550Z,7.70
2023-02-24T10:34:52.443Z,7.50
2023-02-24T10:35:35.964Z,7.90
2023-02-24T10:36:22.286Z,7.50
2023-02-24T10:37:28.192Z,8.00
2023-02-24T10:38:10.515Z,7.50
2023-02-24T10:38:56.060Z,7.80
2023-02-24T10:39:42.486Z,8.00
2023-02-24T10:40:44.730Z,7.90
2023-02-24T10:41:31.400Z,7.80
2023-02-24T10:42:26.707Z,7.80
2023-02-24T10:43:10.881Z,7.80
2023-02-24T10:43:56.047Z,7.70
2023-02-24T10:44:38.979Z,7.50
2023-02-24T10:45:22.436Z,7.70
2023-02-24T10:46:07.742Z,8.20
2023-02-24T10:47:13.574Z,7.60
2023-02-24T10:47:57.748Z,7.50
2023-02-24T10:48:41.749Z,7.60
2023-02-24T10:49:28.581Z,7.60
2023-02-24T10:50:54.968Z,7.40
2023-02-24T10:51:40.430Z,7.50
2023-02-24T10:52:50.753Z,7.30
2023-02-24T10:53:37.471Z,7.90
2023-02-24T10:54:44.616Z,7.70
2023-02-24T10:55:45.872Z,7.30
2023-02-24T10:56:30.292Z,7.40